Latest Coastal Weather Observations for Rhyll

IDV60701

Issued at 8:42 pm EDT Thursday 21 October 2021 (issued every 10 minutes, with the page automatically refreshed every 10 minutes)

About coastal observations | Map of coastal stations | Coastal observations for VIC | Marine services | Other Formats
Station Details ID: 086373 Name: RHYLL Lat: -38.46 Lon: 145.31 Height: 13.4 m
Data from the previous 72 hours. | See also: Recent months at Rhyll
Date/Time
EDT
Wind Sea
Height
m
Swell Vis
km
Cloud Weather Temp
°C
Press
MSL
hPa
Rain since
9am
mm
Dir  Spd
kts
Gust
kts
Height
m
Period
s
Dir
21/08:30pm E 6 8 - - - - - - - 18.0 1014.0 0.0
21/08:00pm E 6 7 - - - - - - - 18.8 1013.7 0.0
21/07:30pm ESE 5 6 - - - - - - - 19.4 1013.4 0.0
21/07:00pm S 3 5 - - - - - - - 20.0 1013.5 0.0
21/06:30pm SSW 3 4 - - - - - - - 20.4 1013.4 0.0
21/06:00pm S 4 5 - - - - - - - 20.6 1013.2 0.0
21/05:30pm S 3 5 - - - - - - - 21.5 1013.0 0.0
21/05:00pm SE 3 6 - - - - - - - 21.6 1013.0 0.0
21/04:30pm E 5 6 - - - - - - - 20.7 1013.0 0.0
21/04:00pm E 7 8 - - - - - - - 21.3 1013.1 0.0
21/03:30pm E 8 8 - - - - - - - 21.0 1013.2 0.0
21/03:00pm ENE 7 8 - - - - - - - 21.1 1013.4 0.0
21/02:30pm ENE 5 6 - - - - - - - 21.5 1013.8 0.0
21/02:00pm E 3 4 - - - - - - - 21.5 1014.1 0.0
21/01:30pm ENE 6 7 - - - - - - - 20.6 1014.4 0.0
21/01:00pm ENE 6 7 - - - - - - - 21.4 1014.5 0.0
21/12:30pm ENE 7 9 - - - - - - - 20.7 1014.6 0.0
21/12:00pm ENE 9 11 - - - - - - - 19.4 1014.8 0.0
21/11:30am NE 8 10 - - - - - - - 19.0 1015.1 0.0
21/11:00am NE 10 12 - - - - - - - 17.1 1015.4 0.0
21/10:30am NE 10 11 - - - - - - - 16.9 1015.4 0.0
21/10:00am NE 10 11 - - - - - - - 16.3 1015.5 0.0
21/09:30am ENE 11 13 - - - - - - - 15.9 1015.5 0.0
21/09:00am NE 11 12 - - - - - - - 15.4 1015.7 0.0
21/08:30am NE 10 12 - - - - - - - 14.8 1015.6 0.0
21/08:00am NE 13 16 - - - - - - - 14.6 1015.3 0.0
21/07:30am ENE 14 16 - - - - - - - 14.3 1015.2 0.0
21/07:00am ENE 16 19 - - - - - - - 14.1 1015.1 0.0
21/06:30am NE 13 17 - - - - - - - 14.1 1015.0 0.0
21/06:00am NNE 8 12 - - - - - - - 14.2 1015.0 0.0
21/05:30am ENE 15 18 - - - - - - - 14.0 1014.3 0.0
21/05:00am ENE 15 18 - - - - - - - 14.1 1014.1 0.0
21/04:30am ENE 15 18 - - - - - - - 14.1 1014.3 0.0
21/04:00am ENE 17 19 - - - - - - - 14.1 1014.2 0.0
21/03:30am ENE 18 21 - - - - - - - 14.4 1014.2 0.0
21/03:00am ENE 18 23 - - - - - - - 14.5 1014.4 0.0
21/02:30am ENE 19 22 - - - - - - - 14.5 1014.6 0.0
21/02:00am ENE 20 24 - - - - - - - 14.4 1015.1 0.0
21/01:30am ENE 20 25 - - - - - - - 14.5 1015.5 0.0
21/01:00am ENE 21 26 - - - - - - - 14.6 1015.8 0.0
21/12:30am ENE 22 26 - - - - - - - 14.6 1016.0 0.0
21/12:00am ENE 21 25 - - - - - - - 14.7 1016.2 0.0
 
Date/Time
EDT
Wind Sea
Height
m
Swell Vis
km
Cloud Weather Temp
°C
Press
MSL
hPa
Rain since
9am
mm
Dir  Spd
kts
Gust
kts
Height
m
Period
s
Dir
20/11:30pm ENE 16 19 - - - - - - - 14.6 1016.5 0.0
20/11:00pm E 11 14 - - - - - - - 14.2 1017.0 0.0
20/10:30pm E 10 12 - - - - - - - 14.2 1017.5 0.0
20/10:00pm E 10 13 - - - - - - - 14.2 1017.8 0.0
20/09:30pm E 10 13 - - - - - - - 14.5 1017.8 0.0
20/09:00pm E 9 12 - - - - - - - 14.7 1017.8 0.0
20/08:30pm E 10 12 - - - - - - - 15.1 1017.5 0.0
20/08:00pm E 13 16 - - - - - - - 15.7 1017.2 0.0
20/07:30pm E 14 17 - - - - - - - 16.4 1017.1 0.0
20/07:00pm E 14 18 - - - - - - - 17.3 1016.9 0.0
20/06:30pm E 13 16 - - - - - - - 18.3 1016.8 0.0
20/06:00pm E 13 15 - - - - - - - 18.8 1016.5 0.0
20/05:30pm E 14 19 - - - - - - - 19.4 1016.6 0.0
20/05:00pm E 13 15 - - - - - - - 19.8 1016.9 0.0
20/04:30pm E 11 14 - - - - - - - 20.1 1017.1 0.0
20/04:00pm ENE 8 10 - - - - - - - 21.0 1017.4 0.0
20/03:30pm ENE 8 12 - - - - - - - 20.9 1017.8 0.0
20/03:00pm ENE 11 14 - - - - - - - 20.6 1018.4 0.0
20/02:30pm ENE 11 15 - - - - - - - 21.2 1019.1 0.0
20/02:00pm ENE 13 16 - - - - - - - 21.1 1019.1 0.0
20/01:30pm E 14 16 - - - - - - - 20.7 1019.3 0.0
20/01:00pm E 15 20 - - - - - - - 20.6 1019.8 0.0
20/12:30pm ENE 19 22 - - - - - - - 20.0 1020.1 0.0
20/12:00pm ENE 16 19 - - - - - - - 20.1 1020.6 0.0
20/11:30am ENE 15 19 - - - - - - - 19.8 1021.4 0.0
20/11:00am ENE 16 20 - - - - - - - 19.2 1021.5 0.0
20/10:30am ENE 17 21 - - - - - - - 18.1 1021.9 0.0
20/10:00am E 18 23 - - - - - - - 17.4 1022.2 0.0
20/09:30am E 16 19 - - - - - - - 16.3 1022.2 0.0
20/09:00am E 14 17 - - - - - - - 15.7 1022.6 0.2
20/08:30am E 14 19 - - - - - - - 14.7 1022.6 0.2
20/08:00am ESE 15 19 - - - - - - - 13.3 1022.6 0.2
20/07:30am ESE 16 18 - - - - - - - 12.4 1023.2 0.2
20/07:00am SE 15 18 - - - - - - - 11.8 1023.5 0.2
20/06:30am ESE 15 17 - - - - - - - 11.4 1023.4 0.2
20/06:00am ESE 15 17 - - - - - - - 11.1 1022.8 0.2
20/05:30am ESE 14 17 - - - - - - - 11.2 1022.8 0.2
20/05:00am ESE 13 16 - - - - - - - 11.1 1022.6 0.2
20/04:30am ESE 16 19 - - - - - - - 11.3 1022.5 0.2
20/04:00am ESE 15 19 - - - - - - - 11.5 1022.6 0.2
20/03:30am ESE 14 18 - - - - - - - 11.7 1023.3 0.2
20/03:00am ESE 16 19 - - - - - - - 11.9 1023.4 0.2
20/02:30am E 15 20 - - - - - - - 11.9 1023.7 0.2
20/02:00am E 15 19 - - - - - - - 11.8 1023.9 0.2
20/01:30am E 15 20 - - - - - - - 11.8 1024.2 0.2
20/01:00am E 15 18 - - - - - - - 11.8 1024.5 0.2
20/12:30am ESE 14 20 - - - - - - - 11.8 1024.6 0.2
20/12:00am ESE 15 18 - - - - - - - 12.0 1025.1 0.2
 
Date/Time
EDT
Wind Sea
Height
m
Swell Vis
km
Cloud Weather Temp
°C
Press
MSL
hPa
Rain since
9am
mm
Dir  Spd
kts
Gust
kts
Height
m
Period
s
Dir
19/11:30pm ESE 15 20 - - - - - - - 12.2 1025.7 0.2
19/11:00pm ESE 15 17 - - - - - - - 12.2 1025.5 0.2
19/10:30pm SE 9 15 - - - - - - - 12.2 1026.1 0.2
19/10:00pm SE 17 22 - - - - - - - 12.5 1024.9 0.2
19/09:30pm SE 19 24 - - - - - - - 12.9 1024.9 0.2
19/09:00pm ESE 19 24 - - - - - - - 12.8 1024.4 0.2
19/08:30pm ESE 19 23 - - - - - - - 13.0 1024.1 0.2
19/08:00pm SE 22 27 - - - - - - - 13.1 1024.1 0.2
19/07:30pm ESE 23 27 - - - - - - - 13.3 1023.3 0.2
19/07:00pm SE 21 26 - - - - - - - 14.1 1023.0 0.2
19/06:30pm ESE 21 25 - - - - - - - 14.5 1022.8 0.2
19/06:00pm SE 14 18 - - - - - - - 14.6 1022.6 0.2
19/05:30pm SSE 13 18 - - - - - - - 14.4 1023.1 0.2
19/05:00pm SSE 15 23 - - - - - - - 15.0 1023.0 0.2
19/04:30pm SSE 16 20 - - - - - - - 15.5 1022.5 0.2
19/04:00pm SSE 14 19 - - - - - - - 15.3 1022.4 0.2
19/03:30pm SSE 15 20 - - - - - - - 15.3 1022.5 0.2
19/03:00pm SSE 15 20 - - - - - - - 14.8 1022.7 0.2
19/02:30pm SSE 16 21 - - - - - - - 15.2 1022.8 0.2
19/02:00pm SSE 14 20 - - - - - - - 15.2 1022.7 0.2
19/01:30pm SSE 14 19 - - - - - - - 15.4 1023.1 0.2
19/01:00pm SSE 13 18 - - - - - - - 15.4 1023.1 0.2
19/12:30pm SSE 14 19 - - - - - - - 14.8 1023.1 0.2
19/12:00pm SSE 13 18 - - - - - - Recent precip. 15.2 1023.1 0.2
19/11:30am SE 11 15 - - - - - - - 16.2 1023.0 0.2
19/11:00am SE 11 17 - - - - - - - 16.1 1022.9 0.0
19/10:30am SE 10 14 - - - - - - - 15.8 1022.7 0.0
19/10:00am SSE 7 19 - - - - - - - 14.8 1022.6 0.0
19/09:30am S 4 7 - - - - - - - 14.8 1022.4 0.0
19/09:00am S 3 5 - - - - - - - 14.2 1022.1 0.0
19/08:30am S 4 7 - - - - - - - 13.0 1021.8 0.0
19/08:00am S 5 9 - - - - - - - 12.7 1021.3 0.0
19/07:30am SSW 5 8 - - - - - - - 11.5 1020.9 0.0
19/07:00am SW 4 7 - - - - - - - 10.4 1020.4 0.0
19/06:30am SSW 6 10 - - - - - - - 10.7 1020.0 0.0
19/06:00am S 7 11 - - - - - - - 11.2 1019.4 0.0
19/05:30am S 7 10 - - - - - - - 10.7 1019.1 0.0
19/05:00am S 5 8 - - - - - - - 10.6 1018.8 0.0
19/04:30am SW 9 17 - - - - - - - 10.7 1018.9 0.0
19/04:00am SW 7 11 - - - - - - - 11.1 1018.7 0.0
19/03:30am SW 5 8 - - - - - - - 11.0 1018.8 0.0
19/03:00am SW 6 9 - - - - - - - 11.0 1018.7 0.0
19/02:30am SW 5 7 - - - - - - - 11.0 1018.7 0.0
19/02:00am SW 5 9 - - - - - - - 10.9 1018.8 0.0
19/01:30am SW 6 8 - - - - - - - 10.9 1018.7 0.0
19/01:00am SW 5 7 - - - - - - - 10.9 1018.6 0.0
19/12:30am WSW 5 8 - - - - - - - 11.2 1018.6 0.0
19/12:00am WSW 4 7 - - - - - - - 11.3 1018.4 0.0
 
Date/Time
EDT
Wind Sea
Height
m
Swell Vis
km
Cloud Weather Temp
°C
Press
MSL
hPa
Rain since
9am
mm
Dir  Spd
kts
Gust
kts
Height
m
Period
s
Dir
18/11:30pm WSW 5 9 - - - - - - - 11.0 1018.2 0.0
18/11:00pm WSW 5 8 - - - - - - - 10.8 1018.1 0.0
18/10:30pm WSW 4 8 - - - - - - - 10.9 1017.9 0.0
18/10:00pm WSW 4 7 - - - - - - - 10.7 1017.7 0.0
18/09:30pm W 3 5 - - - - - - - 10.9 1017.5 0.0
18/09:00pm WSW 4 7 - - - - - - - 10.8 1017.2 0.0

Other formats

Comma delimited format used in spreadsheet applications
http://www.bom.gov.au/fwo/IDV60701/IDV60701.94892.axf

JavaScript Object Notation format (JSON) in row-major order
http://www.bom.gov.au/fwo/IDV60701/IDV60701.94892.json

Data quality

Most of these data are generated automatically and are frequently updated. Quality checks on data are not normally performed. It is possible for incorrect values to appear. Refer to information at About Latest Weather Observations and please check the disclaimer before using these data.